Impacts TAF Board INFO
FOR SITUATIONAL AWARENESS. NOT TO BE USED FOR FLIGHT PLANNING PURPOSES.
IDs:

KSLC - Salt Lake City Intl, UT, US

Issued at 0530 UTC 19 Nov 2017
Updated at 0850 UTC 19 Nov 2017
Potential Impact None Slight Moderate High
Time0754Z 19/09Z 19/10Z 19/11Z 19/12Z 19/13Z 19/14Z 19/15Z 19/16Z 19/17Z 19/18Z 19/19Z 19/20Z 19/21Z>>
Type OBS PRVL PRVL PRVL PRVL PRVL PRVL PRVL PRVL PRVL PRVL PRVL PRVL PRVL
VIS 10 >6 >6 >6 >6 >6 >6 >6 >6 >6 >6 >6 >6 >6
CIG 200 -- -- -- -- -- -- -- -- -- -- -- -- --
Cover BKN FEW FEW FEW FEW FEW FEW FEW FEW FEW FEW FEW FEW FEW
FltCat VFR VFR VFR VFR VFR VFR VFR VFR VFR VFR VFR VFR VFR VFR
WX -- -- -- -- -- -- -- -- -- -- -- -- -- --
WDir VRB 150 150 150 150 150 150 150 150 150 150 150 150 330
WSpd 0 5 5 5 5 5 5 5 5 5 5 5 5 6
WGst -- -- -- -- -- -- -- -- -- -- -- -- -- --

Raw TAF
KSLC 190530Z 1906/2012 15005KT P6SM FEW200
  FM192100 33006KT P6SM FEW200
  FM200300 15006KT P6SM SCT200


Raw METAR
KSLC 190754Z 00000KT 10SM BKN200 00/M04 A3034 RMK AO2 SLP279 T00001044 $
KSLC 190654Z 23005KT 10SM SCT200 M01/M04 A3034 RMK AO2 SLP272 T10061039 400721011 $
KSLC 190554Z 17006KT 10SM SCT200 00/M04 A3034 RMK AO2 SLP285 T00001044 10044 20000 56007 $

METAR Board
Radar Display
Forecast Discussion

FOR SITUATIONAL AWARENESS. NOT TO BE USED FOR FLIGHT PLANNING PURPOSES.